createdAt,value
2023-04-26T00:02:46.444Z,7.00
2023-04-26T00:07:50.448Z,6.63
2023-04-26T00:12:52.433Z,6.22
2023-04-26T00:17:54.056Z,6.45
2023-04-26T00:22:55.766Z,7.10
2023-04-26T00:27:57.488Z,6.25
2023-04-26T00:32:59.090Z,6.28
2023-04-26T00:38:00.912Z,6.57
2023-04-26T00:43:03.436Z,6.80
2023-04-26T00:48:05.317Z,7.60
2023-04-26T00:53:08.526Z,7.25
2023-04-26T00:58:10.814Z,7.88
2023-04-26T01:03:12.554Z,7.78
2023-04-26T01:08:17.219Z,7.45
2023-04-26T01:13:18.960Z,8.32
2023-04-26T01:18:22.059Z,8.68
2023-04-26T01:23:24.791Z,8.50
2023-04-26T01:28:26.960Z,9.18
2023-04-26T01:33:28.494Z,8.63
2023-04-26T01:38:30.030Z,9.75
2023-04-26T01:43:31.631Z,9.55
2023-04-26T01:48:33.213Z,7.95
2023-04-26T01:53:36.010Z,9.65
2023-04-26T01:58:39.470Z,10.05
2023-04-26T02:03:41.195Z,10.10
2023-04-26T02:08:42.765Z,8.23
2023-04-26T02:13:44.313Z,8.52
2023-04-26T02:18:46.020Z,9.68
2023-04-26T02:23:48.200Z,8.43
2023-04-26T02:28:49.961Z,9.35
2023-04-26T02:33:51.555Z,6.65
2023-04-26T02:38:53.303Z,8.10
2023-04-26T02:43:55.401Z,6.18
2023-04-26T02:48:57.100Z,7.60
2023-04-26T02:53:59.150Z,6.13
2023-04-26T02:59:00.881Z,6.78
2023-04-26T03:04:02.693Z,6.38
2023-04-26T03:09:05.845Z,6.75
2023-04-26T03:14:07.712Z,5.63
2023-04-26T03:19:09.662Z,8.13
2023-04-26T03:24:13.555Z,6.90
2023-04-26T03:29:15.990Z,8.00
2023-04-26T03:34:17.585Z,7.47
2023-04-26T03:39:22.194Z,6.82
2023-04-26T03:44:23.912Z,20.63
2023-04-26T03:49:25.734Z,16.90
2023-04-26T03:54:27.469Z,12.55
2023-04-26T03:59:30.019Z,9.43
2023-04-26T04:04:32.022Z,7.93
2023-04-26T04:09:33.954Z,7.60
2023-04-26T04:14:35.658Z,7.45
2023-04-26T04:19:37.558Z,8.57
2023-04-26T04:24:39.407Z,8.60
2023-04-26T04:29:41.531Z,8.18
2023-04-26T04:34:44.388Z,9.48
2023-04-26T04:39:46.581Z,7.57
2023-04-26T04:44:50.070Z,10.15
2023-04-26T04:49:53.049Z,7.90
2023-04-26T04:54:55.961Z,7.93
2023-04-26T04:59:58.534Z,12.65
2023-04-26T05:05:02.070Z,8.95
2023-04-26T05:10:04.539Z,10.00
2023-04-26T05:15:07.203Z,10.57
2023-04-26T05:20:09.345Z,10.45
2023-04-26T05:25:11.493Z,10.82
2023-04-26T05:30:13.991Z,9.77
2023-04-26T05:35:35.586Z,10.35
2023-04-26T05:40:37.298Z,10.05
2023-04-26T05:45:39.745Z,8.32
2023-04-26T05:50:41.757Z,7.85
2023-04-26T05:55:44.106Z,8.10
2023-04-26T06:00:46.115Z,7.40
2023-04-26T06:05:47.642Z,7.22
2023-04-26T06:10:49.270Z,6.85
2023-04-26T06:15:53.864Z,6.97
2023-04-26T06:20:56.357Z,6.80
2023-04-26T06:25:58.034Z,5.63
2023-04-26T06:31:00.301Z,7.55
2023-04-26T06:36:02.552Z,6.47
2023-04-26T06:41:04.264Z,6.30
2023-04-26T06:46:06.424Z,6.35
2023-04-26T06:51:08.840Z,6.32
2023-04-26T06:56:10.414Z,6.43
2023-04-26T07:01:12.196Z,7.00
2023-04-26T07:06:13.744Z,6.22
2023-04-26T07:11:15.526Z,6.43
2023-04-26T07:16:20.256Z,6.57
2023-04-26T07:21:21.984Z,4.82
2023-04-26T07:26:24.450Z,4.75
2023-04-26T07:31:26.015Z,4.60
2023-04-26T07:36:28.547Z,4.95
2023-04-26T07:41:30.276Z,4.28
2023-04-26T07:46:35.855Z,5.75
2023-04-26T07:51:37.544Z,3.70
2023-04-26T07:56:39.089Z,4.63
2023-04-26T08:01:40.703Z,5.30
2023-04-26T08:06:45.076Z,3.80
2023-04-26T08:11:46.675Z,4.00
2023-04-26T08:16:48.319Z,3.83
2023-04-26T08:21:50.252Z,2.63
2023-04-26T08:26:51.974Z,3.03
2023-04-26T08:31:54.191Z,2.70
2023-04-26T08:36:58.394Z,2.53
2023-04-26T08:42:06.829Z,2.67
2023-04-26T08:47:35.259Z,2.50
2023-04-26T08:52:41.944Z,2.50
2023-04-26T08:57:49.559Z,2.85
2023-04-26T09:02:52.927Z,2.35
2023-04-26T09:08:02.326Z,2.05
2023-04-26T09:13:03.967Z,2.00
2023-04-26T09:18:19.673Z,1.98
2023-04-26T09:23:21.561Z,1.67
2023-04-26T09:28:24.382Z,1.92
2023-04-26T09:33:26.047Z,2.85
2023-04-26T09:38:27.612Z,2.33
2023-04-26T09:43:37.699Z,2.80
2023-04-26T09:48:39.247Z,2.47
2023-04-26T09:53:46.495Z,2.25
2023-04-26T09:58:58.334Z,2.92
2023-04-26T10:04:04.731Z,2.67
2023-04-26T10:09:09.190Z,2.58
2023-04-26T10:14:11.396Z,2.20
2023-04-26T10:19:13.998Z,2.03
2023-04-26T10:24:16.037Z,2.38
2023-04-26T10:29:18.069Z,2.22
2023-04-26T10:34:31.135Z,2.20
2023-04-26T10:39:32.765Z,2.20
2023-04-26T10:44:45.806Z,2.42
2023-04-26T10:49:48.259Z,2.88
2023-04-26T10:54:57.753Z,2.05
2023-04-26T11:00:14.404Z,2.38
2023-04-26T11:05:35.862Z,2.10
2023-04-26T11:10:38.981Z,2.50
2023-04-26T11:15:40.757Z,2.47
2023-04-26T11:20:42.344Z,2.50
2023-04-26T11:25:46.727Z,2.63
2023-04-26T11:30:50.461Z,2.47
2023-04-26T11:35:53.978Z,2.72
2023-04-26T11:40:57.208Z,2.30
2023-04-26T11:46:03.475Z,2.30
2023-04-26T11:51:07.293Z,2.90
2023-04-26T11:56:23.121Z,3.25
2023-04-26T12:01:29.817Z,2.30
2023-04-26T12:06:41.671Z,1.90
2023-04-26T12:11:49.549Z,2.47
2023-04-26T12:16:51.181Z,2.83
2023-04-26T12:21:53.402Z,2.10
2023-04-26T12:26:55.068Z,3.25
2023-04-26T12:31:57.321Z,2.20
2023-04-26T12:36:59.022Z,2.20
2023-04-26T12:42:00.675Z,4.85
2023-04-26T12:47:02.430Z,2.38
2023-04-26T12:52:04.394Z,2.20
2023-04-26T12:57:06.139Z,2.40
2023-04-26T13:02:10.642Z,2.42
2023-04-26T13:07:14.879Z,2.22
2023-04-26T13:12:16.529Z,2.25
2023-04-26T13:17:18.117Z,2.13
2023-04-26T13:22:20.586Z,1.95
2023-04-26T13:27:22.555Z,2.28
2023-04-26T13:32:24.228Z,2.35
2023-04-26T13:37:26.965Z,2.17
2023-04-26T13:42:28.609Z,2.40
2023-04-26T13:47:30.193Z,2.08
2023-04-26T13:52:31.788Z,2.10
2023-04-26T13:57:33.351Z,2.42
2023-04-26T14:02:35.056Z,1.95
2023-04-26T14:07:36.855Z,2.10
2023-04-26T14:12:38.570Z,2.20
2023-04-26T14:17:40.196Z,2.10
2023-04-26T14:22:41.773Z,2.22
2023-04-26T14:27:43.748Z,2.20
2023-04-26T14:32:45.689Z,2.40
2023-04-26T14:37:47.343Z,2.17
2023-04-26T14:42:48.979Z,2.15
2023-04-26T14:47:50.578Z,2.13
2023-04-26T14:52:52.281Z,2.40
2023-04-26T14:57:54.543Z,2.40
2023-04-26T15:02:56.540Z,2.30
2023-04-26T15:07:58.135Z,2.20
2023-04-26T15:12:59.696Z,2.13
2023-04-26T15:18:02.151Z,2.13
2023-04-26T15:23:03.757Z,2.20
2023-04-26T15:28:05.475Z,1.83
2023-04-26T15:33:12.854Z,2.15
2023-04-26T15:38:14.401Z,2.05
2023-04-26T15:43:16.316Z,2.00
2023-04-26T15:48:18.105Z,2.53
2023-04-26T15:53:20.526Z,1.70
2023-04-26T15:58:22.332Z,2.28
2023-04-26T16:03:24.099Z,2.40
2023-04-26T16:08:39.451Z,3.00
2023-04-26T16:13:42.323Z,2.25
2023-04-26T16:18:44.363Z,2.58
2023-04-26T16:23:45.966Z,2.47
2023-04-26T16:28:47.501Z,2.53
2023-04-26T16:33:49.097Z,2.20
2023-04-26T16:38:50.947Z,2.17
2023-04-26T16:43:54.162Z,2.35
2023-04-26T16:48:55.742Z,2.38
2023-04-26T16:53:57.279Z,2.20
2023-04-26T16:58:59.190Z,2.45
2023-04-26T17:04:00.993Z,3.00
2023-04-26T17:09:04.380Z,2.40
2023-04-26T17:14:06.280Z,3.10
2023-04-26T17:19:07.857Z,2.50
2023-04-26T17:24:09.401Z,2.38
2023-04-26T17:29:11.002Z,2.25
2023-04-26T17:34:12.674Z,2.38
2023-04-26T17:39:14.410Z,2.10
2023-04-26T17:44:16.036Z,2.38
2023-04-26T17:49:17.716Z,2.72
2023-04-26T17:54:19.269Z,2.50
2023-04-26T17:59:20.807Z,2.45
2023-04-26T18:04:23.887Z,1.90
2023-04-26T18:09:25.832Z,2.20
2023-04-26T18:14:27.894Z,2.25
2023-04-26T18:19:29.456Z,2.20
2023-04-26T18:24:31.102Z,2.15
2023-04-26T18:29:32.910Z,2.22
2023-04-26T18:34:34.507Z,2.20
2023-04-26T18:39:36.115Z,2.03
2023-04-26T18:44:37.957Z,1.88
2023-04-26T18:49:39.678Z,2.03
2023-04-26T18:54:41.394Z,1.80
2023-04-26T18:59:42.916Z,2.00
2023-04-26T19:04:44.760Z,1.55
2023-04-26T19:09:54.109Z,2.00
2023-04-26T19:14:56.900Z,1.92
2023-04-26T19:19:58.570Z,2.08
2023-04-26T19:25:00.198Z,2.25
2023-04-26T19:30:01.825Z,2.60
2023-04-26T19:35:06.067Z,2.17
2023-04-26T19:40:09.093Z,2.10
2023-04-26T19:45:11.319Z,2.05
2023-04-26T19:50:12.996Z,2.30
2023-04-26T19:55:14.914Z,2.10
2023-04-26T20:00:16.925Z,2.65
2023-04-26T20:05:18.678Z,2.60
2023-04-26T20:10:23.518Z,2.38
2023-04-26T20:15:25.111Z,2.28
2023-04-26T20:20:26.893Z,2.30
2023-04-26T20:25:28.466Z,2.47
2023-04-26T20:30:33.798Z,2.25
2023-04-26T20:35:35.479Z,2.25
2023-04-26T20:40:37.588Z,2.10
2023-04-26T20:45:40.434Z,2.38
2023-04-26T20:50:42.113Z,2.17
2023-04-26T20:55:43.660Z,2.25
2023-04-26T21:00:45.201Z,2.35
2023-04-26T21:05:46.852Z,2.40
2023-04-26T21:10:48.664Z,2.28
2023-04-26T21:15:50.265Z,2.40
2023-04-26T21:20:51.805Z,2.40
2023-04-26T21:25:53.361Z,2.30
2023-04-26T21:31:05.298Z,1.90
2023-04-26T21:36:07.226Z,2.40
2023-04-26T21:41:08.806Z,2.53
2023-04-26T21:46:11.908Z,2.58
2023-04-26T21:51:13.653Z,2.33
2023-04-26T21:56:15.304Z,2.53
2023-04-26T22:01:17.032Z,2.80
2023-04-26T22:06:18.679Z,2.67
2023-04-26T22:11:21.633Z,2.15
2023-04-26T22:16:23.229Z,2.72
2023-04-26T22:21:24.964Z,2.20
2023-04-26T22:26:26.971Z,2.65
2023-04-26T22:31:28.549Z,2.83
2023-04-26T22:36:30.442Z,3.10
2023-04-26T22:41:32.054Z,3.08
2023-04-26T22:46:33.803Z,2.47
2023-04-26T22:51:35.475Z,2.85
2023-04-26T22:56:37.492Z,3.15
2023-04-26T23:01:39.038Z,3.40
2023-04-26T23:06:40.877Z,3.33
2023-04-26T23:11:42.458Z,3.70
2023-04-26T23:16:44.073Z,3.28
2023-04-26T23:21:45.801Z,4.00
2023-04-26T23:26:47.396Z,3.25
2023-04-26T23:31:49.054Z,3.55
2023-04-26T23:36:50.801Z,3.22
2023-04-26T23:41:52.341Z,3.25
2023-04-26T23:46:53.899Z,3.25
2023-04-26T23:51:55.599Z,3.55
2023-04-26T23:56:57.273Z,3.65
